Time;durP1;ratioP1;P1;durP2;ratioP2;P2;SDS_P1;SDS_P2;PMS_P1;PMS_P2;Temp;Humidity;BMP_temperature;BMP_pressure;BME280_temperature;BME280_humidity;BME280_pressure;Samples;Min_cycle;Max_cycle;Signal;HPM_P1;HPM_P2
2023/12/14 00:02:19;;;;;;;27.52;10.35;;;-1.00;99.90;;;;;;4990291;28;20294;-84
2023/12/14 00:04:46;;;;;;;27.38;11.07;;;-1.00;99.90;;;;;;4990122;28;20257;-83
2023/12/14 00:07:15;;;;;;;35.55;13.40;;;-1.00;99.90;;;;;;4988928;28;20183;-84
2023/12/14 00:09:42;;;;;;;30.50;11.13;;;-1.00;99.90;;;;;;4990146;28;20203;-84
2023/12/14 00:12:10;;;;;;;34.53;12.10;;;-0.90;99.90;;;;;;4990101;28;20646;-83
2023/12/14 00:14:37;;;;;;;29.50;11.43;;;-0.90;99.90;;;;;;4990022;28;20207;-85
2023/12/14 00:17:05;;;;;;;30.85;11.60;;;-0.90;99.90;;;;;;4989917;28;20619;-83
2023/12/14 00:19:32;;;;;;;26.52;10.73;;;-0.90;99.90;;;;;;4989872;28;20230;-83
2023/12/14 00:22:00;;;;;;;34.85;11.80;;;-1.00;99.90;;;;;;4989155;28;20187;-84
2023/12/14 00:24:28;;;;;;;30.60;11.50;;;-1.00;99.90;;;;;;4986506;28;20227;-83
2023/12/14 00:26:55;;;;;;;28.10;11.52;;;-0.90;99.90;;;;;;4989499;28;20215;-84
2023/12/14 00:29:23;;;;;;;27.98;10.85;;;-0.90;99.90;;;;;;4986933;28;20187;-84
2023/12/14 00:31:51;;;;;;;29.40;11.40;;;-1.00;99.90;;;;;;4985133;28;20281;-82
2023/12/14 00:34:18;;;;;;;32.95;11.68;;;-1.00;99.90;;;;;;4985253;28;20195;-83
2023/12/14 00:36:46;;;;;;;29.63;11.82;;;-1.00;99.90;;;;;;4989206;28;20318;-80
2023/12/14 00:39:13;;;;;;;29.45;11.68;;;-1.00;99.90;;;;;;4986830;28;20194;-82
2023/12/14 00:41:41;;;;;;;27.50;10.70;;;-1.00;99.90;;;;;;4988622;28;20191;-85
2023/12/14 00:44:08;;;;;;;28.75;11.30;;;-1.00;99.90;;;;;;4987218;28;20203;-81
2023/12/14 00:46:36;;;;;;;35.30;11.68;;;-1.00;99.90;;;;;;4989609;28;20681;-84
2023/12/14 00:49:03;;;;;;;29.13;11.35;;;-1.00;99.90;;;;;;4989579;28;20270;-84
2023/12/14 00:51:31;;;;;;;32.50;12.85;;;-1.00;99.90;;;;;;4971679;28;20599;-84
2023/12/14 00:53:58;;;;;;;29.52;11.35;;;-1.00;99.90;;;;;;4988535;28;20298;-83
2023/12/14 00:56:25;;;;;;;30.27;12.15;;;-1.00;99.90;;;;;;4989661;28;20187;-83
2023/12/14 00:58:53;;;;;;;34.13;14.35;;;-1.00;99.90;;;;;;4988486;28;20222;-84
2023/12/14 01:01:20;;;;;;;36.70;12.73;;;-0.90;99.90;;;;;;4993413;28;20205;-83
2023/12/14 01:03:48;;;;;;;36.00;13.60;;;-1.00;99.90;;;;;;4993294;28;20199;-83
2023/12/14 01:06:15;;;;;;;35.33;13.38;;;-0.90;99.90;;;;;;4992002;28;20184;-84
2023/12/14 01:08:43;;;;;;;38.28;13.10;;;-1.00;99.90;;;;;;4993383;28;20195;-83
2023/12/14 01:11:10;;;;;;;34.80;14.00;;;-0.90;99.90;;;;;;4992006;28;20202;-83
2023/12/14 01:13:38;;;;;;;36.97;14.25;;;-0.90;99.90;;;;;;4993209;28;20226;-84
2023/12/14 01:16:06;;;;;;;38.92;12.75;;;-0.90;99.90;;;;;;4992099;28;20283;-83
2023/12/14 01:18:33;;;;;;;39.88;12.80;;;-0.90;99.90;;;;;;4990532;28;20202;-82
2023/12/14 01:21:01;;;;;;;42.55;13.55;;;-0.90;99.90;;;;;;4972609;28;20199;-83
2023/12/14 01:23:28;;;;;;;41.70;13.13;;;-0.80;99.90;;;;;;4993007;28;20230;-83
2023/12/14 01:25:55;;;;;;;35.45;12.32;;;-0.80;99.90;;;;;;4993557;28;20191;-83
2023/12/14 01:28:23;;;;;;;38.58;14.30;;;-0.80;99.90;;;;;;4993321;28;20183;-82
2023/12/14 01:30:51;;;;;;;41.53;14.60;;;-0.90;99.90;;;;;;4993453;28;20661;-85
2023/12/14 01:33:19;;;;;;;38.10;14.18;;;-0.90;99.90;;;;;;4993383;28;20183;-85
2023/12/14 01:35:47;;;;;;;33.85;12.38;;;-0.90;99.90;;;;;;4993432;28;20183;-84
2023/12/14 01:38:14;;;;;;;31.83;12.45;;;-0.90;99.90;;;;;;4993496;28;20184;-82
2023/12/14 01:40:42;;;;;;;34.60;13.02;;;-0.90;99.90;;;;;;4990288;28;20183;-83
2023/12/14 01:43:10;;;;;;;40.42;14.32;;;-0.90;99.90;;;;;;4992466;28;20195;-82
2023/12/14 01:45:38;;;;;;;50.17;14.77;;;-0.80;99.90;;;;;;4990401;28;20235;-83
2023/12/14 01:48:05;;;;;;;49.97;15.55;;;-0.90;99.90;;;;;;4991183;28;20215;-85
2023/12/14 01:50:33;;;;;;;35.38;12.73;;;-0.80;99.90;;;;;;4975275;28;20191;-83
2023/12/14 01:53:01;;;;;;;36.97;13.20;;;-0.80;99.90;;;;;;4975576;28;20282;-84
2023/12/14 01:55:28;;;;;;;42.50;13.77;;;-0.90;99.90;;;;;;4992691;28;20194;-81
2023/12/14 01:57:56;;;;;;;41.38;14.02;;;-0.90;99.90;;;;;;4992546;28;20201;-83
2023/12/14 02:00:43;;;;;;;42.45;14.20;;;-0.80;99.90;;;;;;4992547;28;20710;-83
2023/12/14 02:03:11;;;;;;;43.83;14.90;;;-0.80;99.90;;;;;;4990647;28;20701;-84
2023/12/14 02:05:39;;;;;;;41.65;14.20;;;-0.80;99.90;;;;;;4989878;28;20203;-84
2023/12/14 02:08:07;;;;;;;39.10;14.70;;;-0.80;99.90;;;;;;4988739;28;20205;-84
2023/12/14 02:10:34;;;;;;;44.15;15.18;;;-0.80;99.90;;;;;;4972088;28;20194;-83
2023/12/14 02:13:02;;;;;;;40.35;14.95;;;-0.80;99.90;;;;;;4992064;28;20186;-82
2023/12/14 02:15:30;;;;;;;40.72;14.73;;;-0.80;99.90;;;;;;4992055;28;20187;-82
2023/12/14 02:17:58;;;;;;;45.65;15.65;;;-0.80;99.90;;;;;;4992463;28;20215;-83
2023/12/14 02:20:25;;;;;;;55.97;17.33;;;-0.80;99.90;;;;;;4992278;28;20657;-84
2023/12/14 02:22:54;;;;;;;40.70;15.57;;;-0.80;99.90;;;;;;4990644;28;20191;-84
2023/12/14 02:25:23;;;;;;;45.15;16.58;;;-0.80;99.90;;;;;;4992058;28;20191;-83
2023/12/14 02:27:51;;;;;;;39.60;15.65;;;-0.80;99.90;;;;;;4991644;28;20670;-82
2023/12/14 02:30:19;;;;;;;45.58;17.63;;;-0.90;99.90;;;;;;4974417;28;20242;-84
2023/12/14 02:32:46;;;;;;;49.95;19.13;;;-0.80;99.90;;;;;;4991750;28;20197;-83
2023/12/14 02:35:14;;;;;;;46.95;17.83;;;-0.80;99.90;;;;;;4991687;28;20191;-81
2023/12/14 02:37:42;;;;;;;45.05;18.42;;;-0.80;99.90;;;;;;4991688;28;20213;-84
2023/12/14 02:40:10;;;;;;;41.17;16.77;;;-0.80;99.90;;;;;;4991892;28;20187;-83
2023/12/14 02:42:38;;;;;;;54.35;20.10;;;-0.80;99.90;;;;;;4991565;28;20271;-84
2023/12/14 02:45:06;;;;;;;55.28;20.40;;;-0.80;99.90;;;;;;4989534;28;20214;-84
2023/12/14 02:47:34;;;;;;;59.95;19.27;;;-0.80;99.90;;;;;;4988803;28;20187;-81
2023/12/14 02:50:02;;;;;;;51.90;19.38;;;-0.80;99.90;;;;;;4991315;28;20625;-83
2023/12/14 02:52:29;;;;;;;113.15;22.63;;;-0.90;99.90;;;;;;4990397;28;20470;-81
2023/12/14 02:54:57;;;;;;;53.40;19.30;;;-0.90;99.90;;;;;;4988585;28;20187;-83
2023/12/14 02:57:25;;;;;;;100.15;23.65;;;-0.90;99.90;;;;;;4989433;28;20720;-83
2023/12/14 02:59:53;;;;;;;46.55;19.77;;;-0.90;99.90;;;;;;4988507;28;20386;-82
2023/12/14 03:02:20;;;;;;;53.15;20.23;;;-0.90;99.90;;;;;;4987872;28;20658;-84
2023/12/14 03:04:48;;;;;;;50.28;20.40;;;-0.90;99.90;;;;;;4986639;28;20708;-83
2023/12/14 03:07:15;;;;;;;87.45;21.17;;;-0.90;99.90;;;;;;4986189;28;20186;-83
2023/12/14 03:09:44;;;;;;;44.47;19.55;;;-0.90;99.90;;;;;;4988914;28;20270;-82
2023/12/14 03:12:12;;;;;;;120.57;22.30;;;-0.90;99.90;;;;;;4960555;28;20278;-83
2023/12/14 03:14:40;;;;;;;49.42;19.30;;;-0.90;99.90;;;;;;4987760;28;20253;-83
2023/12/14 03:17:13;;;;;;;53.90;18.80;;;-0.90;99.90;;;;;;4991039;28;20270;-84
2023/12/14 03:19:41;;;;;;;64.35;18.90;;;-0.90;99.90;;;;;;4973505;28;20199;-83
2023/12/14 03:22:09;;;;;;;42.95;18.63;;;-0.90;99.90;;;;;;4990864;28;20195;-83
2023/12/14 03:24:37;;;;;;;66.18;19.70;;;-0.90;99.90;;;;;;4989334;28;20314;-84
2023/12/14 03:27:05;;;;;;;73.28;20.77;;;-0.90;99.90;;;;;;4990762;28;20187;-79
2023/12/14 03:29:33;;;;;;;47.72;19.42;;;-1.00;99.90;;;;;;4973222;28;20259;-84
2023/12/14 03:32:00;;;;;;;40.80;18.13;;;-1.00;99.90;;;;;;4989946;28;20188;-83
2023/12/14 03:34:28;;;;;;;52.92;17.88;;;-1.00;99.90;;;;;;4987870;28;20187;-84
2023/12/14 03:36:55;;;;;;;47.78;17.77;;;-1.10;99.90;;;;;;4973088;28;21093;-84
2023/12/14 03:39:22;;;;;;;86.50;20.42;;;-1.10;99.90;;;;;;4990494;28;20218;-82
2023/12/14 03:41:50;;;;;;;55.22;19.38;;;-1.00;99.90;;;;;;4988494;28;20370;-81
2023/12/14 03:44:17;;;;;;;73.85;18.63;;;-1.00;99.90;;;;;;4985697;28;20211;-84
2023/12/14 03:46:45;;;;;;;51.75;18.35;;;-1.00;99.90;;;;;;4988062;28;20672;-83
2023/12/14 03:49:12;;;;;;;46.60;18.50;;;-1.00;99.90;;;;;;4988087;28;20661;-81
2023/12/14 03:51:40;;;;;;;60.80;19.35;;;-1.00;99.90;;;;;;4969771;28;20547;-82
2023/12/14 03:54:07;;;;;;;58.92;19.05;;;-0.90;99.90;;;;;;4989603;28;20191;-84
2023/12/14 03:56:35;;;;;;;49.70;19.55;;;-0.90;99.90;;;;;;4990412;28;20744;-82
2023/12/14 03:59:02;;;;;;;66.55;19.75;;;-0.90;99.90;;;;;;4986917;28;20235;-81
2023/12/14 04:01:30;;;;;;;48.53;20.10;;;-0.90;99.90;;;;;;4986678;28;20901;-82
2023/12/14 04:03:57;;;;;;;51.38;19.08;;;-0.90;99.90;;;;;;4986880;28;20884;-83
2023/12/14 04:06:25;;;;;;;59.90;18.17;;;-0.90;99.90;;;;;;4986934;28;20206;-84
2023/12/14 04:08:52;;;;;;;70.63;18.88;;;-1.00;99.90;;;;;;4987048;28;20191;-83
2023/12/14 04:11:19;;;;;;;56.85;19.27;;;-1.00;99.90;;;;;;4969440;28;20614;-82
2023/12/14 04:13:50;;;;;;;61.95;19.17;;;-1.00;99.90;;;;;;4969313;28;20933;-83
2023/12/14 04:16:20;;;;;;;61.90;17.83;;;-1.00;99.90;;;;;;4988639;28;20187;-82
2023/12/14 04:18:52;;;;;;;41.17;16.75;;;-1.00;99.90;;;;;;4990520;28;20179;-84
2023/12/14 04:21:19;;;;;;;52.72;19.92;;;-1.00;99.90;;;;;;4988941;28;20818;-84
2023/12/14 04:23:47;;;;;;;56.78;21.40;;;-1.00;99.90;;;;;;4968043;28;20239;-81
2023/12/14 04:26:14;;;;;;;53.20;20.27;;;-1.00;99.90;;;;;;4967783;28;20211;-80
2023/12/14 04:28:44;;;;;;;48.20;20.17;;;-1.00;99.90;;;;;;4968066;28;20626;-82
2023/12/14 04:31:12;;;;;;;61.53;19.73;;;-0.90;99.90;;;;;;4969537;28;20199;-81
2023/12/14 04:33:39;;;;;;;51.95;18.90;;;-0.90;99.90;;;;;;4984755;28;20184;-83
2023/12/14 04:36:07;;;;;;;56.35;19.92;;;-1.00;99.90;;;;;;4970077;28;20617;-83
2023/12/14 04:38:35;;;;;;;55.80;21.13;;;-0.90;99.90;;;;;;4970549;28;20215;-81
2023/12/14 04:41:02;;;;;;;62.13;22.30;;;-0.90;99.90;;;;;;4970236;28;20599;-83
2023/12/14 04:43:32;;;;;;;51.42;20.77;;;-0.90;99.90;;;;;;4970048;28;20649;-84
2023/12/14 04:45:59;;;;;;;59.45;21.35;;;-0.90;99.90;;;;;;4970499;28;20208;-83
2023/12/14 04:48:27;;;;;;;71.53;23.40;;;-0.90;99.90;;;;;;4970486;28;20188;-84
2023/12/14 04:50:54;;;;;;;62.28;22.38;;;-0.90;99.90;;;;;;4985128;28;20250;-81
2023/12/14 04:53:22;;;;;;;63.97;22.50;;;-0.90;99.90;;;;;;4970274;28;20250;-84
2023/12/14 04:55:49;;;;;;;63.17;22.63;;;-0.90;99.90;;;;;;4970254;28;20195;-82
2023/12/14 04:58:17;;;;;;;58.17;20.70;;;-0.90;99.90;;;;;;4967885;28;20263;-82
2023/12/14 05:00:44;;;;;;;55.65;21.15;;;-0.90;99.90;;;;;;4969603;28;20188;-81
2023/12/14 05:03:12;;;;;;;50.17;19.95;;;-0.90;99.90;;;;;;4967604;28;20234;-83
2023/12/14 05:05:39;;;;;;;64.50;21.95;;;-0.90;99.90;;;;;;4968500;28;20242;-83
2023/12/14 05:08:07;;;;;;;52.97;21.08;;;-0.90;99.90;;;;;;4967459;28;20191;-83
2023/12/14 05:10:34;;;;;;;66.82;23.25;;;-0.90;99.90;;;;;;4967547;28;20180;-81
2023/12/14 05:13:03;;;;;;;59.88;21.70;;;-0.90;99.90;;;;;;4967113;28;20234;-84
2023/12/14 05:15:31;;;;;;;54.55;20.23;;;-0.90;99.90;;;;;;4967121;28;20187;-83
2023/12/14 05:17:59;;;;;;;60.38;21.88;;;-0.90;99.90;;;;;;4981926;28;20202;-82
2023/12/14 05:20:26;;;;;;;60.95;21.48;;;-1.00;99.90;;;;;;4969012;28;20219;-84
2023/12/14 05:22:54;;;;;;;59.58;21.08;;;-0.90;99.90;;;;;;4971321;28;20243;-81
2023/12/14 05:25:21;;;;;;;51.50;20.27;;;-1.00;99.90;;;;;;4987608;28;20286;-83
2023/12/14 05:27:49;;;;;;;57.42;20.58;;;-0.90;99.90;;;;;;4985726;28;20187;-82
2023/12/14 05:30:17;;;;;;;56.72;21.50;;;-0.90;99.90;;;;;;4986874;28;20245;-83
2023/12/14 05:32:45;;;;;;;48.40;18.77;;;-0.90;99.90;;;;;;4986227;28;20187;-83
2023/12/14 05:35:12;;;;;;;53.50;20.08;;;-0.90;99.90;;;;;;4986023;28;20202;-84
2023/12/14 05:37:41;;;;;;;52.28;19.75;;;-0.90;99.90;;;;;;4988425;28;20555;-84
2023/12/14 05:40:10;;;;;;;49.10;19.40;;;-0.90;99.90;;;;;;4989430;28;20245;-84
2023/12/14 05:42:37;;;;;;;53.60;20.67;;;-0.90;99.90;;;;;;4988902;28;20283;-83
2023/12/14 05:45:08;;;;;;;56.90;20.48;;;-1.00;99.90;;;;;;4986823;28;20214;-83
2023/12/14 05:47:41;;;;;;;50.45;19.95;;;-1.00;99.90;;;;;;4975349;28;20195;-84
2023/12/14 05:50:09;;;;;;;52.10;21.13;;;-1.00;99.90;;;;;;4992818;28;20275;-83
2023/12/14 05:52:37;;;;;;;58.67;21.02;;;-1.00;99.90;;;;;;4991169;28;20683;-83
2023/12/14 05:55:10;;;;;;;55.80;20.25;;;-0.90;99.90;;;;;;4991232;28;20199;-84
2023/12/14 05:57:37;;;;;;;70.50;21.85;;;-0.90;99.90;;;;;;4992390;28;20180;-83
2023/12/14 06:00:07;;;;;;;76.53;22.83;;;-0.90;99.90;;;;;;4992534;28;20186;-83
2023/12/14 06:02:36;;;;;;;58.05;21.65;;;-0.90;99.90;;;;;;4992538;28;20182;-84
2023/12/14 06:05:07;;;;;;;58.38;21.45;;;-0.90;99.90;;;;;;4992418;28;20227;-84
2023/12/14 06:07:35;;;;;;;54.25;20.25;;;-0.90;99.90;;;;;;4978351;28;20219;-83
2023/12/14 06:10:03;;;;;;;52.42;19.67;;;-0.90;99.90;;;;;;4974926;28;20284;-82
2023/12/14 06:12:31;;;;;;;53.15;19.70;;;-0.90;99.90;;;;;;4972721;28;20192;-82
2023/12/14 06:14:59;;;;;;;53.85;20.65;;;-0.80;99.90;;;;;;4971424;28;20206;-84
2023/12/14 06:17:26;;;;;;;62.45;22.63;;;-0.80;99.90;;;;;;4971945;28;20200;-84
2023/12/14 06:19:57;;;;;;;67.07;22.13;;;-0.80;99.90;;;;;;4972786;28;20176;-84
2023/12/14 06:22:24;;;;;;;61.28;21.42;;;-0.80;99.90;;;;;;4972665;28;20188;-81
2023/12/14 06:24:52;;;;;;;66.07;22.65;;;-0.80;99.90;;;;;;4954375;28;20227;-82
2023/12/14 06:27:22;;;;;;;68.20;22.73;;;-0.90;99.90;;;;;;4972605;28;20184;-84
2023/12/14 06:29:49;;;;;;;64.18;22.13;;;-0.90;99.90;;;;;;4972587;28;20188;-83
2023/12/14 06:32:16;;;;;;;63.55;21.65;;;-0.90;99.90;;;;;;4972942;28;20717;-84
2023/12/14 06:34:44;;;;;;;53.55;21.45;;;-0.90;99.90;;;;;;4972789;28;20271;-81
2023/12/14 06:37:11;;;;;;;49.13;21.27;;;-0.90;99.90;;;;;;4972577;28;20267;-84
2023/12/14 06:39:41;;;;;;;60.85;21.92;;;-0.90;99.90;;;;;;4973064;28;20283;-84
2023/12/14 06:42:08;;;;;;;58.03;19.52;;;-0.90;99.90;;;;;;4991548;28;20576;-85
2023/12/14 06:44:36;;;;;;;56.33;20.95;;;-0.90;99.90;;;;;;4991778;28;20187;-81
2023/12/14 06:47:04;;;;;;;65.55;22.17;;;-0.90;99.90;;;;;;4989154;28;20242;-85
2023/12/14 06:49:31;;;;;;;56.88;19.85;;;-0.90;99.90;;;;;;4991717;28;20575;-81
2023/12/14 06:51:59;;;;;;;66.45;22.52;;;-0.90;99.90;;;;;;4990092;28;20269;-85
2023/12/14 06:54:26;;;;;;;55.47;21.00;;;-1.00;99.90;;;;;;4990949;28;20190;-81
2023/12/14 06:56:54;;;;;;;62.10;21.35;;;-0.90;99.90;;;;;;4976308;28;20199;-84
2023/12/14 06:59:21;;;;;;;58.75;21.02;;;-0.90;99.90;;;;;;4985536;28;20250;-83
2023/12/14 07:01:49;;;;;;;56.55;20.45;;;-0.90;99.90;;;;;;4991096;28;20657;-83
2023/12/14 07:04:18;;;;;;;53.03;19.40;;;-1.00;99.90;;;;;;4991160;28;20724;-81
2023/12/14 07:06:52;;;;;;;57.83;20.35;;;-1.00;99.90;;;;;;4990550;28;20839;-82
2023/12/14 07:09:20;;;;;;;58.60;20.23;;;-1.00;99.90;;;;;;4991009;28;20680;-83
2023/12/14 07:11:47;;;;;;;57.33;20.05;;;-1.00;99.90;;;;;;4990995;28;20275;-85
2023/12/14 07:14:15;;;;;;;53.20;19.30;;;-0.90;99.90;;;;;;4990442;28;20290;-82
2023/12/14 07:16:43;;;;;;;51.55;19.33;;;-1.00;99.90;;;;;;4989779;28;20277;-84
2023/12/14 07:19:13;;;;;;;50.10;19.25;;;-1.00;99.90;;;;;;4991430;28;20183;-84
2023/12/14 07:21:40;;;;;;;44.63;17.60;;;-0.90;99.90;;;;;;4991331;28;20669;-83
2023/12/14 07:24:08;;;;;;;48.10;20.10;;;-1.00;99.90;;;;;;4989639;28;20717;-85
2023/12/14 07:26:37;;;;;;;52.92;18.67;;;-1.00;99.90;;;;;;4990683;28;20279;-82
2023/12/14 07:29:04;;;;;;;54.85;20.17;;;-1.00;99.90;;;;;;4990732;28;20245;-83
2023/12/14 07:31:33;;;;;;;48.50;18.52;;;-1.00;99.90;;;;;;4990937;28;20270;-84
2023/12/14 07:34:01;;;;;;;55.58;20.33;;;-1.00;99.90;;;;;;4990838;28;20202;-82
2023/12/14 07:36:29;;;;;;;53.63;19.23;;;-1.00;99.90;;;;;;4990770;28;20187;-83
2023/12/14 07:38:56;;;;;;;51.90;19.13;;;-1.00;99.90;;;;;;4989393;28;20688;-83
2023/12/14 07:41:27;;;;;;;57.97;19.40;;;-1.00;99.90;;;;;;4989233;28;20623;-83
2023/12/14 07:43:58;;;;;;;50.55;19.98;;;-0.90;99.90;;;;;;4990587;28;20697;-83
2023/12/14 07:46:27;;;;;;;48.40;19.05;;;-1.00;99.90;;;;;;4990458;28;20203;-82
2023/12/14 07:48:54;;;;;;;47.50;18.58;;;-0.90;99.90;;;;;;4990634;28;20253;-84
2023/12/14 07:51:22;;;;;;;49.28;18.85;;;-0.90;99.90;;;;;;4990444;28;20562;-82
2023/12/14 07:53:49;;;;;;;46.67;18.65;;;-0.90;99.90;;;;;;4989582;28;20179;-85
2023/12/14 07:56:17;;;;;;;45.80;17.45;;;-0.90;99.90;;;;;;4990786;28;20238;-82
2023/12/14 07:58:44;;;;;;;51.00;18.25;;;-0.90;99.90;;;;;;4979198;28;20207;-84
2023/12/14 08:01:12;;;;;;;47.58;17.15;;;-1.00;99.90;;;;;;4970869;28;20250;-81
2023/12/14 08:03:39;;;;;;;40.53;17.25;;;-1.00;99.90;;;;;;4971011;28;20662;-83
2023/12/14 08:06:07;;;;;;;56.28;19.50;;;-0.90;99.90;;;;;;4970773;28;20212;-85
2023/12/14 08:08:35;;;;;;;44.28;17.73;;;-1.00;99.90;;;;;;4970239;28;20196;-83
2023/12/14 08:11:03;;;;;;;39.63;15.23;;;-1.00;99.90;;;;;;4968344;28;20188;-84
2023/12/14 08:13:31;;;;;;;40.75;16.73;;;-1.00;99.90;;;;;;4968054;28;20184;-84
2023/12/14 08:15:58;;;;;;;47.33;19.90;;;-0.90;99.90;;;;;;4969388;28;20274;-82
2023/12/14 08:18:26;;;;;;;45.72;18.83;;;-0.90;99.90;;;;;;4969186;28;20695;-84
2023/12/14 08:20:55;;;;;;;43.60;17.27;;;-0.90;99.90;;;;;;4969580;28;20183;-82
2023/12/14 08:23:23;;;;;;;48.78;19.17;;;-0.90;99.90;;;;;;4967985;28;20318;-83
2023/12/14 08:25:51;;;;;;;54.08;19.80;;;-0.90;99.90;;;;;;4970002;28;20192;-84
2023/12/14 08:28:18;;;;;;;49.53;18.83;;;-0.90;99.90;;;;;;4970489;28;20192;-84
2023/12/14 08:30:46;;;;;;;44.85;17.00;;;-0.90;99.90;;;;;;4970497;28;20674;-83
2023/12/14 08:33:13;;;;;;;51.13;18.40;;;-0.90;99.90;;;;;;4970266;28;20662;-84
2023/12/14 08:35:41;;;;;;;46.72;18.80;;;-0.90;99.90;;;;;;4968689;28;20677;-83
2023/12/14 08:38:09;;;;;;;48.00;18.73;;;-0.90;99.90;;;;;;4967585;28;21025;-84
2023/12/14 08:40:37;;;;;;;59.80;20.08;;;-0.90;99.90;;;;;;4968320;28;20331;-84
2023/12/14 08:43:05;;;;;;;53.00;20.08;;;-0.90;99.90;;;;;;4970378;28;20242;-83
2023/12/14 08:45:33;;;;;;;54.42;22.27;;;-0.90;99.90;;;;;;4970627;28;20977;-85
2023/12/14 08:48:00;;;;;;;53.10;19.30;;;-0.90;99.90;;;;;;4970541;28;20216;-83
2023/12/14 08:50:27;;;;;;;52.42;20.48;;;-0.90;99.90;;;;;;4969117;28;20817;-85
2023/12/14 08:52:55;;;;;;;53.47;19.35;;;-0.90;99.90;;;;;;4970364;28;20183;-84
2023/12/14 08:55:22;;;;;;;57.35;20.13;;;-1.00;99.90;;;;;;4970124;28;20184;-84
2023/12/14 08:57:50;;;;;;;62.13;21.92;;;-1.00;99.90;;;;;;4970142;28;20553;-80
2023/12/14 09:00:18;;;;;;;61.28;22.25;;;-1.00;99.90;;;;;;4970315;28;20195;-81
2023/12/14 09:02:46;;;;;;;57.78;21.48;;;-1.00;99.90;;;;;;4970216;28;20180;-84
2023/12/14 09:05:14;;;;;;;56.75;22.20;;;-1.00;99.90;;;;;;4967693;28;20589;-84
2023/12/14 09:07:43;;;;;;;66.20;22.40;;;-1.00;99.90;;;;;;4967131;28;20195;-82
2023/12/14 09:10:11;;;;;;;51.25;20.35;;;-1.00;99.90;;;;;;4967225;28;20302;-85
2023/12/14 09:12:38;;;;;;;62.83;20.88;;;-1.00;99.90;;;;;;4967430;28;20191;-84
2023/12/14 09:15:06;;;;;;;58.80;19.55;;;-0.90;99.90;;;;;;4967064;28;20191;-82
2023/12/14 09:17:34;;;;;;;67.47;23.35;;;-0.90;99.90;;;;;;4966801;28;20816;-84
2023/12/14 09:20:05;;;;;;;54.88;21.40;;;-0.90;99.90;;;;;;4968808;28;20219;-83
2023/12/14 09:22:33;;;;;;;54.03;21.45;;;-0.90;99.90;;;;;;4973794;28;20271;-83
2023/12/14 09:25:02;;;;;;;63.33;22.75;;;-0.90;99.90;;;;;;4972348;28;20259;-83
2023/12/14 09:27:29;;;;;;;53.10;20.13;;;-0.90;99.90;;;;;;4972448;28;20212;-83
2023/12/14 09:29:57;;;;;;;67.05;22.13;;;-0.90;99.90;;;;;;4974002;28;20192;-84
2023/12/14 09:32:24;;;;;;;50.03;19.88;;;-0.90;99.90;;;;;;4971483;28;20712;-83
2023/12/14 09:34:56;;;;;;;61.20;22.52;;;-0.80;99.90;;;;;;4970999;28;20199;-82
2023/12/14 09:37:24;;;;;;;61.28;21.60;;;-0.80;99.90;;;;;;4973697;28;20177;-83
2023/12/14 09:39:51;;;;;;;59.35;21.15;;;-0.80;99.90;;;;;;4970896;28;20235;-82
2023/12/14 09:42:20;;;;;;;55.92;22.67;;;-0.90;99.90;;;;;;4970958;28;20658;-82
2023/12/14 09:44:48;;;;;;;54.55;21.38;;;-1.00;99.90;;;;;;4954368;28;20689;-83
2023/12/14 09:47:15;;;;;;;54.63;21.60;;;-1.10;99.90;;;;;;4973138;28;20214;-82
2023/12/14 09:49:45;;;;;;;54.67;21.38;;;-1.10;99.90;;;;;;4973225;28;20184;-83
2023/12/14 09:52:13;;;;;;;53.17;20.55;;;-0.90;99.90;;;;;;4971845;28;20283;-82
2023/12/14 09:54:40;;;;;;;55.78;21.88;;;-1.00;99.90;;;;;;4972925;28;20489;-82
2023/12/14 09:57:08;;;;;;;63.22;23.33;;;-1.00;99.90;;;;;;4971837;28;20192;-81
2023/12/14 09:59:36;;;;;;;56.55;20.83;;;-1.00;99.90;;;;;;4972387;28;20206;-83
2023/12/14 10:02:12;;;;;;;52.95;19.90;;;-0.90;99.90;;;;;;4972935;28;20215;-82
2023/12/14 10:04:40;;;;;;;52.00;19.52;;;-0.90;99.90;;;;;;4971889;28;20262;-81
2023/12/14 10:07:07;;;;;;;38.92;15.60;;;-0.90;99.90;;;;;;4970363;28;20976;-83
2023/12/14 10:09:37;;;;;;;33.75;14.55;;;-0.90;99.90;;;;;;4971056;28;20212;-83
2023/12/14 10:12:07;;;;;;;34.22;14.20;;;-0.90;99.90;;;;;;4971742;28;20234;-83
2023/12/14 10:14:36;;;;;;;35.30;13.90;;;-0.90;99.90;;;;;;4972961;28;20196;-84
2023/12/14 10:17:17;;;;;;;39.15;14.85;;;-0.80;99.90;;;;;;4972669;28;20215;-84
2023/12/14 10:19:49;;;;;;;33.50;13.63;;;-0.90;99.90;;;;;;4972247;28;20172;-83
2023/12/14 10:22:18;;;;;;;35.03;13.38;;;-0.90;99.90;;;;;;4972873;28;20717;-82
2023/12/14 10:24:47;;;;;;;34.38;14.73;;;-0.90;99.90;;;;;;4972606;28;20322;-82
2023/12/14 10:27:15;;;;;;;35.88;13.60;;;-0.90;99.90;;;;;;4972572;28;20585;-81
2023/12/14 10:29:45;;;;;;;31.60;13.70;;;-0.80;99.90;;;;;;4972523;28;20236;-85
2023/12/14 10:32:14;;;;;;;29.08;12.05;;;-0.80;99.90;;;;;;4971921;28;20188;-83
2023/12/14 10:34:41;;;;;;;32.22;12.50;;;-0.80;99.90;;;;;;4971696;28;20184;-82
2023/12/14 10:37:10;;;;;;;30.20;12.35;;;-0.80;99.90;;;;;;4972680;28;20200;-83
2023/12/14 10:39:40;;;;;;;29.95;12.38;;;-0.80;99.90;;;;;;4955338;28;20187;-82
2023/12/14 10:42:09;;;;;;;29.98;12.05;;;-0.80;99.90;;;;;;4971154;28;20255;-83
2023/12/14 10:44:54;;;;;;;30.00;11.93;;;-0.80;99.90;;;;;;4954958;28;20286;-81
2023/12/14 10:47:47;;;;;;;30.20;12.20;;;-0.80;99.90;;;;;;4971121;28;20199;-83
2023/12/14 10:50:16;;;;;;;33.85;12.10;;;-0.80;99.90;;;;;;4971052;28;20219;-83
2023/12/14 10:52:45;;;;;;;30.48;13.05;;;-0.80;99.90;;;;;;4971399;28;20801;-82
2023/12/14 10:55:30;;;;;;;27.23;11.55;;;-0.80;99.90;;;;;;4969471;28;20188;-83
2023/12/14 10:57:58;;;;;;;29.02;11.50;;;-0.70;99.90;;;;;;4969997;28;20239;-84
2023/12/14 11:00:25;;;;;;;25.42;10.13;;;-0.80;99.90;;;;;;4969213;28;20247;-80
2023/12/14 11:02:53;;;;;;;26.15;12.18;;;-0.80;99.90;;;;;;4968962;28;20243;-81
2023/12/14 11:05:29;;;;;;;25.73;10.73;;;-0.80;99.90;;;;;;4968707;28;20317;-83
2023/12/14 11:08:12;;;;;;;29.13;11.82;;;-0.80;99.90;;;;;;4970001;28;20596;-82
2023/12/14 11:10:41;;;;;;;24.77;10.77;;;-0.80;99.90;;;;;;4968613;28;20183;-81
2023/12/14 11:13:12;;;;;;;29.08;11.98;;;-0.80;99.90;;;;;;4968961;28;20235;-82
2023/12/14 11:15:49;;;;;;;27.38;11.27;;;-0.70;99.90;;;;;;4971120;28;20182;-82
2023/12/14 11:18:22;;;;;;;30.05;12.50;;;-0.70;99.90;;;;;;4971707;28;20179;-83
2023/12/14 11:20:51;;;;;;;26.40;11.27;;;-0.70;99.90;;;;;;4972245;28;20195;-85
2023/12/14 11:23:25;;;;;;;28.85;11.65;;;-0.70;99.90;;;;;;4968668;28;20637;-80
2023/12/14 11:26:04;;;;;;;23.67;9.73;;;-0.70;99.90;;;;;;4969687;28;20247;-82
2023/12/14 11:28:35;;;;;;;22.95;10.43;;;-0.70;99.90;;;;;;4954701;28;20628;-84
2023/12/14 11:31:06;;;;;;;25.23;9.68;;;-0.80;99.90;;;;;;4971480;28;20171;-83
2023/12/14 11:33:35;;;;;;;27.45;9.95;;;-0.70;99.90;;;;;;4971468;28;20184;-84
2023/12/14 11:36:08;;;;;;;24.67;9.90;;;-0.80;99.90;;;;;;4971648;28;20184;-82
2023/12/14 11:38:36;;;;;;;25.65;10.90;;;-0.80;99.90;;;;;;4971349;28;20180;-82
2023/12/14 11:41:04;;;;;;;26.15;10.95;;;-0.80;99.90;;;;;;4952023;28;20230;-84
2023/12/14 11:43:40;;;;;;;27.17;10.98;;;-0.80;99.90;;;;;;4966394;28;20184;-82
2023/12/14 11:46:08;;;;;;;26.02;11.13;;;-0.70;99.90;;;;;;4968303;28;20172;-80
2023/12/14 11:48:35;;;;;;;28.52;11.30;;;-0.70;99.90;;;;;;4969213;28;20613;-82
2023/12/14 11:51:03;;;;;;;27.73;11.02;;;-0.70;99.90;;;;;;4971412;28;20210;-83
2023/12/14 11:53:32;;;;;;;28.60;11.55;;;-0.70;99.90;;;;;;4971302;28;20277;-84
2023/12/14 11:56:02;;;;;;;22.67;9.70;;;-0.70;99.90;;;;;;4969719;28;20222;-84
2023/12/14 11:58:34;;;;;;;21.77;9.85;;;-0.70;99.90;;;;;;4971208;28;20196;-83
2023/12/14 12:01:13;;;;;;;19.05;8.68;;;-0.80;99.90;;;;;;4970806;28;20175;-82
2023/12/14 12:03:41;;;;;;;22.63;9.90;;;-0.80;99.90;;;;;;4971371;28;20580;-83
2023/12/14 12:06:21;;;;;;;25.30;9.95;;;-0.80;99.90;;;;;;4970737;28;20188;-83
2023/12/14 12:08:49;;;;;;;22.23;9.93;;;-0.80;99.90;;;;;;4967960;28;20266;-83
2023/12/14 12:11:21;;;;;;;22.02;9.68;;;-0.80;99.90;;;;;;4967570;28;20733;-82
2023/12/14 12:13:54;;;;;;;24.40;10.30;;;-0.70;99.90;;;;;;4969074;28;20192;-84
2023/12/14 12:16:22;;;;;;;22.02;9.13;;;-0.80;99.90;;;;;;4970726;28;20545;-83
2023/12/14 12:18:50;;;;;;;24.27;10.35;;;-0.80;99.90;;;;;;4970566;28;20222;-82
2023/12/14 12:21:19;;;;;;;24.90;9.85;;;-0.70;99.90;;;;;;4970891;28;20267;-82
2023/12/14 12:23:46;;;;;;;21.60;10.02;;;-0.70;99.90;;;;;;4970605;28;20282;-82
2023/12/14 12:26:15;;;;;;;27.75;10.95;;;-0.70;99.90;;;;;;4970547;28;20202;-84
2023/12/14 12:28:42;;;;;;;31.85;12.02;;;-0.70;99.90;;;;;;4970700;28;20184;-84
2023/12/14 12:31:10;;;;;;;35.53;14.43;;;-0.70;99.90;;;;;;4970709;28;20180;-83
2023/12/14 12:33:37;;;;;;;44.30;17.75;;;-0.60;99.90;;;;;;4969476;28;20187;-83
2023/12/14 12:36:06;;;;;;;41.60;16.98;;;-0.70;99.90;;;;;;4981532;28;20281;-84